Time;durP1;ratioP1;P1;durP2;ratioP2;P2;SDS_P1;SDS_P2;PMS_P1;PMS_P2;Temp;Humidity;BMP_temperature;BMP_pressure;BME280_temperature;BME280_humidity;BME280_pressure;Samples;Min_cycle;Max_cycle;Signal;HPM_P1;HPM_P2
2020/12/05 00:02:09;;;;;;;7.13;2.67;;;3.30;93.40;;;;;;4982934;28;20046;-95
2020/12/05 00:04:34;;;;;;;6.75;2.47;;;3.30;93.50;;;;;;4982156;28;20050;-95
2020/12/05 00:07:00;;;;;;;3.47;2.08;;;3.30;93.50;;;;;;4982216;28;20454;-95
2020/12/05 00:09:25;;;;;;;5.15;1.92;;;3.20;93.50;;;;;;4984427;28;20021;-95
2020/12/05 00:11:51;;;;;;;3.70;2.03;;;3.30;93.60;;;;;;4998827;28;20030;-94
2020/12/05 00:14:17;;;;;;;4.47;1.70;;;3.30;93.60;;;;;;4982203;28;20026;-95
2020/12/05 00:16:42;;;;;;;4.43;2.15;;;3.30;93.60;;;;;;4982111;28;20030;-96
2020/12/05 00:19:08;;;;;;;3.10;1.48;;;3.30;93.80;;;;;;4986657;28;20026;-94
2020/12/05 00:21:33;;;;;;;2.13;1.55;;;3.30;93.60;;;;;;4979374;28;20035;-94
2020/12/05 00:23:59;;;;;;;3.17;1.48;;;3.20;93.50;;;;;;4985849;28;20116;-95
2020/12/05 00:26:25;;;;;;;3.58;1.58;;;3.10;93.60;;;;;;4978952;28;20015;-94
2020/12/05 00:28:50;;;;;;;3.78;1.80;;;3.10;93.60;;;;;;4983210;28;20026;-94
2020/12/05 00:31:17;;;;;;;6.63;2.28;;;3.10;93.80;;;;;;4980908;28;20019;-95
2020/12/05 00:33:43;;;;;;;4.35;2.50;;;3.10;93.80;;;;;;4976814;28;20022;-94
2020/12/05 00:36:09;;;;;;;6.13;2.65;;;3.10;93.80;;;;;;4977105;28;20098;-94
2020/12/05 00:38:36;;;;;;;3.25;2.15;;;3.20;93.80;;;;;;4981863;28;20026;-94
2020/12/05 00:41:04;;;;;;;5.05;2.67;;;3.20;93.80;;;;;;4978158;28;20034;-94
2020/12/05 00:43:35;;;;;;;4.35;2.40;;;3.20;93.80;;;;;;4979980;28;20019;-94
2020/12/05 00:46:04;;;;;;;4.25;2.72;;;3.20;93.90;;;;;;4979477;28;20031;-95
2020/12/05 00:48:32;;;;;;;8.10;4.47;;;3.30;93.90;;;;;;4982198;28;20098;-94
2020/12/05 00:50:58;;;;;;;5.05;2.33;;;3.20;93.90;;;;;;4983225;28;20084;-94
2020/12/05 00:53:24;;;;;;;4.50;2.58;;;3.30;94.00;;;;;;4979622;28;20026;-94
2020/12/05 00:55:50;;;;;;;5.07;3.03;;;3.30;93.90;;;;;;4983922;28;20126;-95
2020/12/05 00:58:15;;;;;;;6.43;2.78;;;3.30;93.90;;;;;;4978247;28;20058;-95
2020/12/05 01:00:41;;;;;;;6.22;2.67;;;3.30;94.00;;;;;;4980517;28;20026;-95
2020/12/05 01:03:07;;;;;;;5.07;2.50;;;3.30;94.00;;;;;;4985603;28;20605;-94
2020/12/05 01:05:33;;;;;;;5.50;2.53;;;3.30;94.00;;;;;;4991619;28;20113;-95
2020/12/05 01:08:00;;;;;;;8.07;3.03;;;3.30;94.00;;;;;;4975102;28;20023;-95
2020/12/05 01:10:25;;;;;;;6.03;2.72;;;3.30;94.00;;;;;;4975034;28;20114;-95
2020/12/05 01:12:51;;;;;;;5.40;2.38;;;3.30;94.00;;;;;;4982908;28;20726;-94
2020/12/05 01:15:17;;;;;;;4.28;1.95;;;3.30;94.00;;;;;;4977597;28;20014;-94
2020/12/05 01:17:42;;;;;;;4.32;2.17;;;3.30;94.10;;;;;;4975814;28;20098;-95
2020/12/05 01:20:08;;;;;;;5.30;2.42;;;3.30;94.10;;;;;;4981458;28;20042;-95
2020/12/05 01:22:33;;;;;;;4.18;1.70;;;3.20;94.10;;;;;;4986409;28;20050;-95
2020/12/05 01:24:59;;;;;;;5.28;1.95;;;3.10;94.20;;;;;;4977837;28;20068;-95
2020/12/05 01:27:25;;;;;;;3.92;1.52;;;3.00;94.30;;;;;;4992399;28;20021;-94
2020/12/05 01:29:51;;;;;;;3.78;1.55;;;3.00;94.30;;;;;;4995549;28;20500;-94
2020/12/05 01:32:17;;;;;;;2.80;1.83;;;3.00;94.30;;;;;;4981418;28;20026;-95
2020/12/05 01:34:43;;;;;;;3.47;1.88;;;3.10;94.40;;;;;;4981194;28;20446;-94
2020/12/05 01:37:09;;;;;;;2.75;1.52;;;3.00;94.40;;;;;;4993630;28;20052;-95
2020/12/05 01:39:35;;;;;;;3.97;1.70;;;3.00;94.40;;;;;;4994982;28;20030;-94
2020/12/05 01:42:01;;;;;;;2.25;1.38;;;3.10;94.30;;;;;;4983055;28;20023;-94
2020/12/05 01:44:26;;;;;;;2.53;1.48;;;3.00;94.20;;;;;;4988785;28;20497;-94
2020/12/05 01:46:52;;;;;;;2.28;1.33;;;3.00;94.20;;;;;;4979123;28;20126;-95
2020/12/05 01:49:20;;;;;;;3.42;1.40;;;3.00;94.20;;;;;;4988211;28;20018;-94
2020/12/05 01:51:46;;;;;;;3.17;1.20;;;2.90;94.20;;;;;;4982901;28;20014;-94
2020/12/05 01:54:12;;;;;;;3.28;1.60;;;2.90;94.20;;;;;;4988336;28;20029;-94
2020/12/05 01:56:39;;;;;;;2.45;1.35;;;2.90;94.10;;;;;;5001439;28;20073;-95
2020/12/05 01:59:04;;;;;;;4.60;1.48;;;2.90;94.10;;;;;;4979999;28;20041;-94
2020/12/05 02:01:32;;;;;;;2.90;1.55;;;2.80;94.10;;;;;;4980794;28;20398;-94
2020/12/05 02:04:00;;;;;;;3.50;1.52;;;2.80;94.20;;;;;;4990845;28;20022;-94
2020/12/05 02:07:06;;;;;;;2.33;1.40;;;2.80;94.20;;;;;;4994715;28;20014;-95
2020/12/05 02:09:36;;;;;;;2.97;1.50;;;2.80;94.20;;;;;;4987730;28;20363;-96
2020/12/05 02:12:06;;;;;;;3.13;1.30;;;2.80;94.30;;;;;;4983970;28;20029;-94
2020/12/05 02:14:34;;;;;;;2.15;1.38;;;2.80;94.50;;;;;;4980406;28;20068;-95
2020/12/05 02:17:04;;;;;;;4.28;1.38;;;2.70;94.30;;;;;;4977115;28;20023;-95
2020/12/05 02:19:42;;;;;;;2.55;1.33;;;2.70;94.30;;;;;;4985121;28;20512;-95
2020/12/05 02:22:12;;;;;;;2.55;1.40;;;2.70;94.30;;;;;;4985267;28;20021;-94
2020/12/05 02:24:39;;;;;;;2.30;1.30;;;2.60;94.40;;;;;;4978835;28;20045;-95
2020/12/05 02:27:05;;;;;;;2.60;1.50;;;2.60;94.40;;;;;;4978021;28;20149;-94
2020/12/05 02:29:34;;;;;;;4.70;1.45;;;2.60;94.50;;;;;;4982000;28;20022;-94
2020/12/05 02:32:02;;;;;;;3.47;1.60;;;2.50;94.50;;;;;;4982391;28;20018;-94
2020/12/05 02:34:28;;;;;;;5.18;2.03;;;2.50;94.50;;;;;;4988662;28;20112;-94
2020/12/05 02:36:55;;;;;;;3.55;1.75;;;2.40;94.50;;;;;;4986919;28;20026;-95
2020/12/05 02:39:22;;;;;;;3.35;1.70;;;2.40;94.60;;;;;;4983681;28;20026;-95
2020/12/05 02:41:48;;;;;;;3.50;1.75;;;2.40;94.70;;;;;;4998409;28;20022;-95
2020/12/05 02:44:14;;;;;;;2.85;1.55;;;2.40;94.60;;;;;;4983230;28;20377;-94
2020/12/05 02:46:43;;;;;;;3.92;1.65;;;2.40;94.60;;;;;;4990763;28;20021;-95
2020/12/05 02:49:08;;;;;;;4.30;1.70;;;2.40;94.50;;;;;;4987630;28;20021;-94
2020/12/05 02:51:34;;;;;;;3.70;1.70;;;2.40;94.50;;;;;;4980874;28;20026;-95
2020/12/05 02:53:59;;;;;;;3.22;1.58;;;2.40;94.50;;;;;;4983109;28;20018;-95
2020/12/05 02:56:25;;;;;;;2.88;1.60;;;2.40;94.50;;;;;;4988873;28;20023;-94
2020/12/05 02:58:50;;;;;;;5.13;1.95;;;2.40;94.60;;;;;;4986041;28;20059;-94
2020/12/05 03:01:16;;;;;;;4.10;1.80;;;2.30;94.70;;;;;;4984037;28;20027;-95
2020/12/05 03:03:41;;;;;;;5.05;1.80;;;2.30;94.80;;;;;;4990306;28;20524;-94
2020/12/05 03:06:07;;;;;;;4.82;1.85;;;2.30;94.90;;;;;;4982830;28;20018;-95
2020/12/05 03:08:32;;;;;;;4.05;2.08;;;2.30;95.00;;;;;;4988787;28;20030;-95
2020/12/05 03:10:58;;;;;;;4.40;1.80;;;2.30;95.00;;;;;;4985453;28;20021;-95
2020/12/05 03:13:24;;;;;;;4.50;1.95;;;2.40;95.00;;;;;;4988224;28;20026;-94
2020/12/05 03:15:49;;;;;;;3.17;1.83;;;2.40;95.10;;;;;;4982546;28;20022;-94
2020/12/05 03:18:15;;;;;;;3.15;1.83;;;2.40;95.10;;;;;;4989032;28;20032;-95
2020/12/05 03:20:40;;;;;;;5.15;3.00;;;2.30;95.20;;;;;;4987181;28;20077;-94
2020/12/05 03:23:06;;;;;;;4.70;2.60;;;2.30;95.40;;;;;;4996588;28;20042;-95
2020/12/05 03:25:31;;;;;;;7.63;3.17;;;2.30;95.50;;;;;;4990838;28;20080;-95
2020/12/05 03:27:57;;;;;;;3.83;1.98;;;2.40;95.50;;;;;;4982753;28;20504;-95
2020/12/05 03:30:23;;;;;;;3.90;1.88;;;2.40;95.40;;;;;;5003680;28;20098;-94
2020/12/05 03:32:49;;;;;;;4.43;2.75;;;2.50;95.30;;;;;;4987883;28;20441;-95
2020/12/05 03:35:14;;;;;;;4.43;2.42;;;2.50;95.00;;;;;;4987643;28;20426;-94
2020/12/05 03:37:40;;;;;;;3.35;1.80;;;2.40;94.90;;;;;;4980008;28;20034;-96
2020/12/05 03:40:06;;;;;;;5.07;2.35;;;2.40;95.00;;;;;;4987291;28;20061;-96
2020/12/05 03:42:32;;;;;;;4.32;2.55;;;2.40;95.10;;;;;;4988859;28;20049;-95
2020/12/05 03:44:57;;;;;;;5.22;2.40;;;2.40;95.00;;;;;;4982271;28;20050;-95
2020/12/05 03:47:23;;;;;;;3.50;2.20;;;2.40;95.00;;;;;;4980753;28;20026;-96
2020/12/05 03:49:48;;;;;;;4.00;1.73;;;2.50;95.00;;;;;;4986262;28;20536;-95
2020/12/05 03:52:15;;;;;;;3.08;1.73;;;2.50;95.00;;;;;;4987765;28;20437;-95
2020/12/05 03:54:41;;;;;;;3.33;2.05;;;2.50;95.00;;;;;;4989827;28;20033;-95
2020/12/05 03:57:07;;;;;;;3.55;1.80;;;2.50;95.10;;;;;;4984710;28;20026;-95
2020/12/05 03:59:32;;;;;;;5.25;1.95;;;2.50;95.00;;;;;;4985052;28;20533;-94
2020/12/05 04:01:58;;;;;;;5.70;2.80;;;2.50;95.00;;;;;;4985428;28;20027;-95
2020/12/05 04:04:23;;;;;;;3.97;2.20;;;2.50;95.00;;;;;;4979619;28;20086;-95
2020/12/05 04:06:49;;;;;;;3.47;2.08;;;2.50;95.00;;;;;;4986394;28;20019;-94
2020/12/05 04:09:14;;;;;;;4.53;2.13;;;2.40;94.90;;;;;;4984541;28;20022;-95
2020/12/05 04:11:40;;;;;;;4.13;1.90;;;2.40;94.90;;;;;;4979673;28;20022;-95
2020/12/05 04:14:10;;;;;;;4.07;2.00;;;2.40;94.90;;;;;;4984538;28;20109;-95
2020/12/05 04:16:36;;;;;;;4.43;2.05;;;2.40;94.90;;;;;;4985778;28;20037;-95
2020/12/05 04:19:02;;;;;;;3.22;1.67;;;2.40;94.90;;;;;;4987028;28;20026;-95
2020/12/05 04:21:27;;;;;;;17.40;3.17;;;2.40;94.90;;;;;;4979829;28;20029;-94
2020/12/05 04:23:56;;;;;;;5.53;2.08;;;2.30;94.90;;;;;;4991467;28;20045;-96
2020/12/05 04:26:22;;;;;;;4.43;2.15;;;2.30;95.20;;;;;;4983270;28;20029;-94
2020/12/05 04:28:48;;;;;;;2.72;1.75;;;2.30;94.90;;;;;;4986868;28;20106;-95
2020/12/05 04:31:14;;;;;;;4.38;2.17;;;2.30;94.90;;;;;;4978749;28;20049;-95
2020/12/05 04:33:39;;;;;;;4.68;1.55;;;2.30;94.90;;;;;;4991681;28;20019;-95
2020/12/05 04:36:05;;;;;;;3.00;1.95;;;2.30;95.00;;;;;;4986523;28;20117;-96
2020/12/05 04:38:30;;;;;;;5.72;2.00;;;2.20;95.00;;;;;;4984478;28;20038;-95
2020/12/05 04:41:00;;;;;;;3.60;2.13;;;2.20;95.00;;;;;;4984619;28;20026;-95
2020/12/05 04:43:26;;;;;;;4.47;2.53;;;2.20;95.00;;;;;;4981683;28;20067;-95
2020/12/05 04:45:53;;;;;;;4.22;2.20;;;2.20;95.00;;;;;;4987352;28;20466;-95
2020/12/05 04:48:19;;;;;;;4.38;2.05;;;2.20;95.00;;;;;;5003517;28;20023;-95
2020/12/05 04:50:46;;;;;;;3.00;1.65;;;2.10;95.00;;;;;;4987065;28;20076;-96
2020/12/05 04:53:17;;;;;;;4.03;2.03;;;2.20;95.00;;;;;;4986749;28;20028;-95
2020/12/05 04:55:43;;;;;;;3.33;2.05;;;2.10;94.90;;;;;;4993607;28;20466;-95
2020/12/05 04:58:22;;;;;;;5.85;2.45;;;2.10;94.90;;;;;;4985460;28;20026;-95
2020/12/05 05:00:58;;;;;;;3.80;2.17;;;2.10;94.90;;;;;;4980668;28;20019;-94
2020/12/05 05:03:26;;;;;;;4.38;2.15;;;2.00;95.00;;;;;;4978100;28;20502;-95
2020/12/05 05:05:53;;;;;;;4.63;1.92;;;2.00;95.10;;;;;;4982912;28;20022;-95
2020/12/05 05:08:18;;;;;;;3.83;1.83;;;1.90;95.10;;;;;;4987827;28;20050;-95
2020/12/05 05:10:44;;;;;;;3.83;2.40;;;1.90;95.40;;;;;;4988820;28;20448;-94
2020/12/05 05:13:17;;;;;;;4.45;2.17;;;1.90;95.10;;;;;;4978262;28;20018;-95
2020/12/05 05:15:43;;;;;;;5.85;2.03;;;1.90;95.10;;;;;;4995377;28;20041;-96
2020/12/05 05:18:10;;;;;;;4.78;2.10;;;1.80;95.10;;;;;;4986456;28;20386;-95
2020/12/05 05:20:39;;;;;;;4.57;2.33;;;1.80;95.10;;;;;;4996991;28;20025;-95
2020/12/05 05:23:10;;;;;;;4.72;2.95;;;1.70;95.10;;;;;;5008618;28;20039;-95
2020/12/05 05:25:51;;;;;;;4.50;2.13;;;1.70;95.10;;;;;;5002208;28;20027;-94
2020/12/05 05:28:25;;;;;;;3.67;2.00;;;1.70;95.10;;;;;;4994433;28;20029;-95
2020/12/05 05:30:59;;;;;;;4.13;2.10;;;1.70;95.20;;;;;;4977930;28;20077;-95
2020/12/05 05:33:25;;;;;;;3.50;1.92;;;1.70;95.20;;;;;;4997017;28;20494;-96
2020/12/05 05:35:51;;;;;;;4.78;2.00;;;1.70;95.10;;;;;;4978027;28;20058;-95
2020/12/05 05:38:23;;;;;;;5.03;2.40;;;1.70;95.10;;;;;;4987514;28;20018;-94
2020/12/05 05:40:50;;;;;;;3.35;1.90;;;1.70;95.10;;;;;;4985688;28;20390;-94
2020/12/05 05:43:19;;;;;;;3.47;2.17;;;1.70;95.20;;;;;;4980514;28;20014;-94
2020/12/05 05:45:46;;;;;;;4.32;2.42;;;1.70;95.20;;;;;;4991190;28;20405;-95
2020/12/05 05:48:13;;;;;;;4.03;2.15;;;1.70;95.20;;;;;;4978454;28;20101;-95
2020/12/05 05:50:39;;;;;;;4.75;2.20;;;1.70;95.20;;;;;;4984796;28;20548;-95
2020/12/05 05:53:09;;;;;;;3.47;2.20;;;1.70;95.20;;;;;;4984590;28;20026;-95
2020/12/05 05:55:46;;;;;;;4.05;2.05;;;1.80;95.20;;;;;;4980233;28;20046;-94
2020/12/05 05:58:13;;;;;;;4.15;2.30;;;1.80;95.20;;;;;;4981262;28;20478;-95
2020/12/05 06:00:47;;;;;;;3.15;2.00;;;1.80;95.30;;;;;;4985368;28;20045;-95
2020/12/05 06:03:21;;;;;;;4.05;2.75;;;1.80;95.20;;;;;;4979674;28;20018;-95
2020/12/05 06:05:49;;;;;;;4.07;2.78;;;1.80;95.30;;;;;;5002984;28;20019;-95
2020/12/05 06:08:20;;;;;;;5.00;2.78;;;1.80;95.30;;;;;;4987969;28;20034;-91
2020/12/05 06:10:58;;;;;;;6.47;3.30;;;1.70;95.40;;;;;;4993972;28;20050;-95
2020/12/05 06:13:29;;;;;;;4.63;3.33;;;1.70;95.50;;;;;;4983377;28;20023;-95
2020/12/05 06:15:56;;;;;;;7.57;5.03;;;1.70;95.70;;;;;;4984534;28;20029;-95
2020/12/05 06:18:22;;;;;;;8.85;5.65;;;1.70;96.00;;;;;;4981956;28;20022;-95
2020/12/05 06:20:48;;;;;;;10.10;5.20;;;1.70;96.00;;;;;;4981572;28;20382;-94
2020/12/05 06:23:37;;;;;;;7.70;5.07;;;1.70;96.00;;;;;;4989920;28;20050;-95
2020/12/05 06:26:06;;;;;;;9.18;5.65;;;1.80;96.20;;;;;;4991062;28;20030;-95
2020/12/05 06:28:32;;;;;;;8.50;6.07;;;1.80;96.30;;;;;;4984534;28;20522;-94
2020/12/05 06:30:58;;;;;;;8.05;5.90;;;1.80;96.30;;;;;;4981488;28;20060;-94
2020/12/05 06:33:40;;;;;;;9.27;6.28;;;1.90;96.30;;;;;;4982465;28;20027;-94
2020/12/05 06:36:28;;;;;;;9.65;6.43;;;1.90;96.40;;;;;;4980343;28;20473;-94
2020/12/05 06:39:06;;;;;;;10.60;7.00;;;1.90;96.60;;;;;;4977433;28;20092;-94
2020/12/05 06:41:39;;;;;;;9.40;7.05;;;1.80;96.90;;;;;;5000612;28;20018;-93
2020/12/05 06:44:17;;;;;;;10.32;6.95;;;1.80;97.00;;;;;;4977351;28;20022;-93
2020/12/05 06:46:53;;;;;;;11.98;7.75;;;1.80;97.30;;;;;;4979618;28;20110;-93
2020/12/05 06:49:40;;;;;;;12.20;6.78;;;1.80;97.50;;;;;;4977600;28;20023;-93
2020/12/05 06:52:24;;;;;;;11.90;7.20;;;1.80;97.60;;;;;;4977469;28;20026;-94
2020/12/05 06:54:56;;;;;;;11.25;6.78;;;1.70;97.70;;;;;;4977548;28;20031;-93
2020/12/05 06:57:24;;;;;;;11.45;7.50;;;1.80;97.90;;;;;;4995364;28;20031;-88
2020/12/05 06:59:50;;;;;;;9.23;6.25;;;1.70;97.90;;;;;;4977518;28;20026;-94
2020/12/05 07:02:33;;;;;;;13.82;7.72;;;1.80;98.00;;;;;;4977918;28;20037;-93
2020/12/05 07:05:20;;;;;;;10.82;7.25;;;1.90;98.00;;;;;;4977311;28;20026;-95
2020/12/05 07:07:47;;;;;;;12.88;7.68;;;1.90;98.10;;;;;;4977404;28;20030;-92
2020/12/05 07:10:13;;;;;;;14.80;8.90;;;1.90;98.10;;;;;;4977495;28;20027;-91
2020/12/05 07:12:39;;;;;;;12.82;7.10;;;1.90;98.20;;;;;;4977297;28;20481;-92
2020/12/05 07:15:28;;;;;;;12.02;7.65;;;2.00;98.20;;;;;;4977532;28;20030;-96
2020/12/05 07:17:58;;;;;;;12.85;7.22;;;2.10;98.20;;;;;;4978087;28;20049;-95
2020/12/05 07:20:25;;;;;;;17.73;8.18;;;2.10;98.20;;;;;;4977350;28;20022;-94
2020/12/05 07:22:54;;;;;;;12.07;7.47;;;2.10;98.20;;;;;;4977379;28;20046;-93
2020/12/05 07:25:21;;;;;;;13.80;7.72;;;2.10;98.20;;;;;;4977388;28;20023;-94
2020/12/05 07:27:47;;;;;;;12.75;7.22;;;2.20;98.20;;;;;;4977704;28;20027;-92
2020/12/05 07:30:13;;;;;;;11.82;7.47;;;2.10;98.10;;;;;;4977771;28;20030;-93
2020/12/05 07:32:43;;;;;;;13.43;7.45;;;2.20;98.10;;;;;;4977397;28;20545;-93
2020/12/05 07:35:18;;;;;;;16.20;6.30;;;2.10;98.10;;;;;;4977629;28;20038;-92
2020/12/05 07:37:44;;;;;;;11.52;7.47;;;2.20;98.10;;;;;;4977248;28;20039;-91
2020/12/05 07:40:10;;;;;;;10.30;7.47;;;2.10;98.10;;;;;;4977115;28;20038;-92
2020/12/05 07:42:38;;;;;;;10.82;7.20;;;2.10;98.10;;;;;;4991442;28;20030;-91
2020/12/05 07:45:12;;;;;;;12.48;7.57;;;2.10;98.10;;;;;;4989923;28;20027;-90
2020/12/05 07:47:39;;;;;;;8.82;6.10;;;2.10;98.10;;;;;;4976913;28;20034;-88
2020/12/05 07:50:05;;;;;;;11.52;6.05;;;2.10;98.10;;;;;;4976765;28;20475;-88
2020/12/05 07:52:31;;;;;;;10.32;6.47;;;2.20;98.20;;;;;;4976814;28;20027;-90
2020/12/05 07:54:58;;;;;;;10.73;7.25;;;2.20;98.10;;;;;;4982194;28;20030;-88
2020/12/05 07:57:33;;;;;;;10.52;6.78;;;2.20;98.10;;;;;;4980098;28;20110;-88
2020/12/05 08:00:07;;;;;;;12.75;6.88;;;2.20;98.00;;;;;;4976958;28;20143;-88
2020/12/05 08:02:40;;;;;;;13.35;7.05;;;2.20;98.00;;;;;;4976950;28;20035;-89
2020/12/05 08:05:29;;;;;;;11.25;6.38;;;2.20;97.90;;;;;;4976330;28;20031;-88
2020/12/05 08:08:01;;;;;;;11.82;6.47;;;2.20;98.00;;;;;;4968770;28;20039;-88
2020/12/05 08:10:32;;;;;;;9.85;7.00;;;2.20;98.00;;;;;;4980105;28;20018;-89
2020/12/05 08:13:18;;;;;;;12.43;7.05;;;2.30;98.00;;;;;;5006672;28;20022;-89
2020/12/05 08:15:52;;;;;;;11.85;6.60;;;2.30;98.00;;;;;;5014649;28;20026;-88
2020/12/05 08:18:20;;;;;;;10.90;7.15;;;2.40;98.00;;;;;;5015802;28;20025;-89
2020/12/05 08:20:47;;;;;;;10.98;7.07;;;2.30;98.00;;;;;;5015684;28;20037;-89
2020/12/05 08:23:30;;;;;;;10.50;7.10;;;2.30;98.00;;;;;;5015185;28;20041;-89
2020/12/05 08:25:59;;;;;;;12.90;7.22;;;2.40;98.00;;;;;;5015228;28;20030;-88
2020/12/05 08:28:26;;;;;;;11.25;7.07;;;2.40;98.10;;;;;;5015188;28;20072;-89
2020/12/05 08:30:53;;;;;;;11.65;7.43;;;2.40;98.00;;;;;;5015316;28;20076;-89
2020/12/05 08:33:19;;;;;;;12.13;7.25;;;2.40;98.00;;;;;;5015308;28;20350;-89
2020/12/05 08:35:44;;;;;;;13.05;7.47;;;2.50;98.10;;;;;;5015171;28;20025;-89
2020/12/05 08:38:14;;;;;;;13.00;8.00;;;2.50;98.00;;;;;;5016335;28;20018;-89
2020/12/05 08:40:41;;;;;;;10.45;6.95;;;2.50;98.00;;;;;;5014860;28;20120;-88
2020/12/05 08:43:07;;;;;;;11.15;7.38;;;2.60;98.00;;;;;;5014933;28;20079;-89
2020/12/05 08:45:38;;;;;;;11.23;7.05;;;2.60;98.00;;;;;;5014200;28;20022;-89
2020/12/05 08:48:14;;;;;;;13.02;7.55;;;2.60;98.00;;;;;;5013567;28;20030;-89
2020/12/05 08:50:40;;;;;;;10.02;7.38;;;2.70;98.00;;;;;;5016381;28;20026;-88
2020/12/05 08:53:05;;;;;;;11.70;7.70;;;2.70;98.00;;;;;;5004553;28;20033;-88
2020/12/05 08:55:32;;;;;;;11.85;7.88;;;2.80;97.90;;;;;;4987213;28;20027;-89
2020/12/05 08:57:59;;;;;;;11.93;7.60;;;2.80;97.80;;;;;;4992179;28;20118;-89
2020/12/05 09:00:27;;;;;;;9.35;6.57;;;2.80;97.80;;;;;;4984209;28;20121;-88
2020/12/05 09:02:53;;;;;;;11.45;7.03;;;2.80;97.80;;;;;;4994561;28;20062;-89
2020/12/05 09:05:19;;;;;;;9.95;6.32;;;2.90;97.80;;;;;;4994728;28;20026;-88
2020/12/05 09:07:55;;;;;;;9.80;7.00;;;2.90;97.80;;;;;;4994809;28;20041;-88
2020/12/05 09:10:21;;;;;;;10.35;6.78;;;3.00;97.80;;;;;;4994715;28;20018;-88
2020/12/05 09:12:46;;;;;;;8.90;6.35;;;3.10;97.90;;;;;;4996153;28;20019;-88
2020/12/05 09:15:12;;;;;;;10.30;6.40;;;3.10;97.80;;;;;;4994868;28;20026;-88
2020/12/05 09:17:38;;;;;;;14.38;6.90;;;3.20;97.70;;;;;;5003415;28;20489;-88
2020/12/05 09:20:22;;;;;;;8.63;6.57;;;3.30;97.60;;;;;;5014465;28;20440;-87
2020/12/05 09:22:50;;;;;;;9.15;6.00;;;3.30;97.40;;;;;;5017305;28;20049;-88
2020/12/05 09:25:24;;;;;;;11.25;6.50;;;3.40;97.30;;;;;;5035019;28;20021;-89
2020/12/05 09:27:50;;;;;;;10.77;6.80;;;3.50;97.30;;;;;;5017262;28;20025;-88
2020/12/05 09:30:15;;;;;;;9.90;6.90;;;3.50;97.30;;;;;;5017241;28;20385;-88
2020/12/05 09:32:47;;;;;;;11.35;7.07;;;3.50;97.10;;;;;;5017017;28;20066;-89
2020/12/05 09:35:20;;;;;;;11.90;7.72;;;3.50;96.90;;;;;;5017294;28;20026;-88
2020/12/05 09:37:47;;;;;;;13.75;6.85;;;3.60;96.80;;;;;;5017232;28;20033;-88
2020/12/05 09:40:14;;;;;;;12.60;7.80;;;3.60;96.90;;;;;;5017338;28;20022;-87
2020/12/05 09:42:41;;;;;;;12.27;7.30;;;3.60;96.90;;;;;;5034937;28;20040;-90
2020/12/05 09:45:08;;;;;;;11.20;7.60;;;3.70;96.90;;;;;;5016483;28;20029;-89
2020/12/05 09:47:34;;;;;;;10.40;7.03;;;3.70;96.80;;;;;;5016959;28;20021;-89
2020/12/05 09:50:00;;;;;;;8.88;6.50;;;3.80;96.80;;;;;;5017075;28;20026;-88
2020/12/05 09:52:26;;;;;;;9.18;6.82;;;3.80;96.70;;;;;;5034631;28;20025;-88
2020/12/05 09:54:52;;;;;;;9.95;6.65;;;3.90;96.70;;;;;;5017012;28;20030;-88
2020/12/05 09:57:18;;;;;;;11.95;7.82;;;4.10;96.70;;;;;;4980196;28;20461;-85
2020/12/05 09:59:44;;;;;;;8.63;6.72;;;4.20;96.70;;;;;;4992443;28;20045;-88
2020/12/05 10:02:10;;;;;;;9.13;6.32;;;4.30;96.50;;;;;;4977728;28;20087;-88
2020/12/05 10:04:36;;;;;;;8.95;6.20;;;4.30;96.20;;;;;;4993346;28;20532;-87
2020/12/05 10:07:02;;;;;;;11.00;6.55;;;4.40;96.10;;;;;;4979921;28;20018;-90
2020/12/05 10:09:27;;;;;;;9.38;4.88;;;4.40;96.10;;;;;;4978421;28;20398;-89
2020/12/05 10:11:53;;;;;;;7.72;4.95;;;4.40;95.90;;;;;;4976915;28;20018;-86
2020/12/05 10:14:19;;;;;;;5.15;3.88;;;4.60;96.10;;;;;;4985844;28;20148;-87
2020/12/05 10:16:44;;;;;;;6.80;4.13;;;4.70;96.00;;;;;;5000372;28;20070;-86
2020/12/05 10:19:10;;;;;;;6.57;4.00;;;4.80;95.90;;;;;;5024838;28;20088;-87
2020/12/05 10:21:35;;;;;;;6.28;3.45;;;5.10;95.90;;;;;;4996233;28;20037;-87
2020/12/05 10:24:01;;;;;;;5.80;3.17;;;5.30;95.60;;;;;;4981772;28;20050;-87
2020/12/05 10:26:26;;;;;;;4.90;2.95;;;5.70;94.70;;;;;;4996157;28;20109;-87
2020/12/05 10:28:52;;;;;;;8.88;3.05;;;6.20;93.80;;;;;;4996108;28;20072;-87
2020/12/05 10:31:17;;;;;;;4.18;2.78;;;6.20;92.80;;;;;;4985196;28;20065;-88
2020/12/05 10:33:43;;;;;;;5.10;2.83;;;6.20;92.10;;;;;;4990827;28;20022;-87
2020/12/05 10:36:08;;;;;;;3.85;2.70;;;6.50;91.90;;;;;;4980877;28;20545;-87
2020/12/05 10:38:34;;;;;;;4.63;2.38;;;6.80;90.90;;;;;;4981375;28;20435;-87
2020/12/05 10:40:59;;;;;;;3.47;2.20;;;7.00;90.50;;;;;;4987379;28;20022;-88
2020/12/05 10:43:25;;;;;;;3.38;2.10;;;7.10;88.90;;;;;;4978102;28;20816;-87
2020/12/05 10:45:50;;;;;;;5.13;2.45;;;7.40;89.90;;;;;;4986942;28;20117;-87
2020/12/05 10:48:16;;;;;;;7.93;3.17;;;7.50;86.40;;;;;;5007060;28;20495;-87
2020/12/05 10:50:41;;;;;;;4.15;2.10;;;7.40;86.40;;;;;;4992643;28;20393;-88
2020/12/05 10:53:07;;;;;;;3.60;2.38;;;7.40;87.30;;;;;;4980169;28;20023;-88
2020/12/05 10:55:32;;;;;;;4.82;2.50;;;7.40;86.20;;;;;;4984140;28;20560;-88
2020/12/05 10:57:58;;;;;;;3.47;2.25;;;7.40;85.10;;;;;;4993322;28;20042;-87
2020/12/05 11:00:24;;;;;;;4.35;2.45;;;7.60;85.10;;;;;;4986739;28;20057;-87
2020/12/05 11:02:49;;;;;;;3.58;2.42;;;7.90;83.40;;;;;;4999408;28;20128;-87
2020/12/05 11:05:15;;;;;;;3.15;2.10;;;7.80;83.00;;;;;;4987916;28;20030;-87
2020/12/05 11:07:41;;;;;;;4.32;2.17;;;7.50;84.10;;;;;;5008294;28;20474;-87
2020/12/05 11:10:06;;;;;;;3.15;2.20;;;7.50;84.60;;;;;;5013287;28;20076;-89
2020/12/05 11:12:32;;;;;;;3.10;1.92;;;7.40;83.00;;;;;;5005350;28;20018;-88
2020/12/05 11:14:57;;;;;;;5.28;2.60;;;7.30;84.70;;;;;;4980076;28;20030;-86
2020/12/05 11:17:23;;;;;;;3.83;2.50;;;7.20;83.60;;;;;;4980026;28;20026;-88
2020/12/05 11:19:48;;;;;;;2.85;2.42;;;7.20;84.80;;;;;;4997137;28;20055;-86
2020/12/05 11:22:14;;;;;;;3.38;2.28;;;7.20;84.90;;;;;;4986362;28;20030;-86
2020/12/05 11:24:40;;;;;;;4.45;2.55;;;7.20;84.70;;;;;;4990301;28;20046;-86
2020/12/05 11:27:05;;;;;;;4.50;2.75;;;7.20;84.50;;;;;;4998655;28;20026;-86
2020/12/05 11:29:31;;;;;;;3.13;2.22;;;7.10;83.30;;;;;;4998852;28;20393;-85
2020/12/05 11:31:56;;;;;;;4.55;2.10;;;7.10;83.60;;;;;;5016291;28;20469;-86
2020/12/05 11:34:22;;;;;;;4.95;2.42;;;7.00;83.70;;;;;;4997927;28;20501;-86
2020/12/05 11:36:47;;;;;;;3.25;1.80;;;6.90;82.60;;;;;;4979266;28;20386;-86
2020/12/05 11:39:13;;;;;;;2.53;1.63;;;6.90;83.50;;;;;;4996674;28;20054;-86
2020/12/05 11:41:38;;;;;;;5.13;2.17;;;6.70;82.40;;;;;;4979257;28;20027;-85
2020/12/05 11:44:05;;;;;;;3.70;2.38;;;6.60;83.20;;;;;;4979174;28;20022;-87
2020/12/05 11:46:32;;;;;;;4.13;2.35;;;6.50;83.40;;;;;;5008712;28;20022;-87
2020/12/05 11:48:58;;;;;;;4.85;2.00;;;6.80;83.10;;;;;;5018228;28;20462;-86
2020/12/05 11:51:24;;;;;;;3.88;2.17;;;6.90;82.10;;;;;;5018157;28;20028;-86
2020/12/05 11:53:50;;;;;;;4.40;2.08;;;7.00;82.30;;;;;;5018327;28;20056;-86
2020/12/05 11:56:15;;;;;;;7.07;2.10;;;7.00;80.80;;;;;;5018000;28;20489;-86
2020/12/05 11:58:41;;;;;;;4.63;2.20;;;7.00;81.90;;;;;;5018089;28;20025;-87
2020/12/05 12:01:07;;;;;;;6.25;2.65;;;6.90;82.40;;;;;;5018692;28;20503;-88
2020/12/05 12:03:33;;;;;;;5.20;2.05;;;6.90;83.20;;;;;;5018903;28;20061;-88
2020/12/05 12:05:58;;;;;;;4.75;1.77;;;6.80;83.60;;;;;;5018976;28;20017;-89
2020/12/05 12:08:24;;;;;;;6.63;2.60;;;6.70;84.40;;;;;;5018385;28;20544;-88
2020/12/05 12:10:49;;;;;;;4.18;1.80;;;6.70;83.50;;;;;;5018522;28;20547;-86
2020/12/05 12:13:15;;;;;;;4.15;1.85;;;6.80;84.20;;;;;;5018582;28;20025;-88
2020/12/05 12:15:40;;;;;;;4.18;2.08;;;7.10;83.30;;;;;;5017962;28;20124;-86
2020/12/05 12:18:06;;;;;;;2.85;1.85;;;7.30;83.20;;;;;;5001773;28;20053;-85
2020/12/05 12:20:31;;;;;;;4.18;2.25;;;7.20;81.70;;;;;;4988700;28;20481;-87
2020/12/05 12:22:57;;;;;;;5.22;2.30;;;7.20;80.40;;;;;;4987093;28;20061;-86
2020/12/05 12:25:22;;;;;;;4.57;2.10;;;7.10;81.10;;;;;;4986649;28;20022;-86
2020/12/05 12:27:48;;;;;;;2.88;1.83;;;7.10;81.80;;;;;;4986783;28;20023;-86
2020/12/05 12:30:13;;;;;;;3.88;1.95;;;7.10;82.00;;;;;;4986782;28;20019;-87
2020/12/05 12:32:39;;;;;;;3.60;1.95;;;7.20;81.70;;;;;;4990672;28;20025;-88
2020/12/05 12:35:04;;;;;;;5.30;2.40;;;7.30;82.10;;;;;;4991839;28;20061;-89
2020/12/05 12:37:30;;;;;;;3.58;2.17;;;7.30;81.20;;;;;;4983699;28;20050;-86
2020/12/05 12:39:55;;;;;;;5.55;2.40;;;7.20;81.50;;;;;;4985597;28;20405;-86
2020/12/05 12:42:28;;;;;;;4.78;2.28;;;7.40;81.20;;;;;;5002805;28;20393;-86
2020/12/05 12:44:54;;;;;;;3.63;2.17;;;7.40;80.40;;;;;;4988395;28;20029;-86
2020/12/05 12:50:01;;;;;;;3.95;2.35;;;7.70;81.60;;;;;;5002895;28;20053;-86
2020/12/05 12:52:27;;;;;;;3.22;2.05;;;7.50;81.40;;;;;;4987971;28;20524;-86
2020/12/05 12:54:52;;;;;;;3.67;2.10;;;7.40;81.40;;;;;;4985618;28;20025;-86
2020/12/05 12:57:19;;;;;;;3.85;1.70;;;7.20;82.40;;;;;;4985504;28;20476;-86
2020/12/05 12:59:44;;;;;;;3.42;1.75;;;7.10;82.70;;;;;;4985505;28;20508;-86
2020/12/05 13:02:10;;;;;;;3.95;2.40;;;7.10;83.20;;;;;;5001760;28;20035;-86